sensor_id;sensor_type;location;lat;lon;timestamp;P1;durP1;ratioP1;P2;durP2;ratioP2
54121;SDS011;40029;58.708;50.190;2022-07-17T00:01:31;11.35;;;3.90;;
54121;SDS011;40029;58.708;50.190;2022-07-17T00:04:02;10.05;;;3.60;;
54121;SDS011;40029;58.708;50.190;2022-07-17T00:06:34;8.60;;;3.78;;
54121;SDS011;40029;58.708;50.190;2022-07-17T00:09:05;14.02;;;3.97;;
54121;SDS011;40029;58.708;50.190;2022-07-17T00:11:36;7.43;;;3.78;;
54121;SDS011;40029;58.708;50.190;2022-07-17T00:14:07;11.40;;;3.92;;
54121;SDS011;40029;58.708;50.190;2022-07-17T00:16:38;11.95;;;3.95;;
54121;SDS011;40029;58.708;50.190;2022-07-17T00:19:09;11.30;;;2.88;;
54121;SDS011;40029;58.708;50.190;2022-07-17T00:21:40;11.60;;;3.40;;
54121;SDS011;40029;58.708;50.190;2022-07-17T00:24:11;5.00;;;3.10;;
54121;SDS011;40029;58.708;50.190;2022-07-17T00:26:50;6.95;;;2.72;;
54121;SDS011;40029;58.708;50.190;2022-07-17T00:29:22;7.35;;;2.90;;
54121;SDS011;40029;58.708;50.190;2022-07-17T00:31:53;3.92;;;3.10;;
54121;SDS011;40029;58.708;50.190;2022-07-17T00:34:24;5.78;;;3.13;;
54121;SDS011;40029;58.708;50.190;2022-07-17T00:36:55;5.35;;;2.70;;
54121;SDS011;40029;58.708;50.190;2022-07-17T00:39:26;5.97;;;2.55;;
54121;SDS011;40029;58.708;50.190;2022-07-17T00:41:57;6.88;;;2.97;;
54121;SDS011;40029;58.708;50.190;2022-07-17T00:44:28;13.13;;;2.60;;
54121;SDS011;40029;58.708;50.190;2022-07-17T00:46:59;6.47;;;3.20;;
54121;SDS011;40029;58.708;50.190;2022-07-17T00:49:30;6.15;;;2.90;;
54121;SDS011;40029;58.708;50.190;2022-07-17T00:52:01;5.03;;;2.75;;
54121;SDS011;40029;58.708;50.190;2022-07-17T00:54:34;11.05;;;2.92;;
54121;SDS011;40029;58.708;50.190;2022-07-17T00:57:08;11.07;;;3.47;;
54121;SDS011;40029;58.708;50.190;2022-07-17T00:59:41;7.33;;;3.17;;
54121;SDS011;40029;58.708;50.190;2022-07-17T01:02:13;4.05;;;3.25;;
54121;SDS011;40029;58.708;50.190;2022-07-17T01:04:44;12.10;;;3.65;;
54121;SDS011;40029;58.708;50.190;2022-07-17T01:07:15;4.93;;;3.15;;
54121;SDS011;40029;58.708;50.190;2022-07-17T01:09:46;6.05;;;3.13;;
54121;SDS011;40029;58.708;50.190;2022-07-17T01:12:17;6.68;;;3.25;;
54121;SDS011;40029;58.708;50.190;2022-07-17T01:14:48;4.40;;;3.10;;
54121;SDS011;40029;58.708;50.190;2022-07-17T01:17:20;3.53;;;2.85;;
54121;SDS011;40029;58.708;50.190;2022-07-17T01:19:51;7.05;;;3.33;;
54121;SDS011;40029;58.708;50.190;2022-07-17T01:22:23;6.18;;;2.97;;
54121;SDS011;40029;58.708;50.190;2022-07-17T01:24:54;8.30;;;3.20;;
54121;SDS011;40029;58.708;50.190;2022-07-17T01:27:25;9.82;;;3.47;;
54121;SDS011;40029;58.708;50.190;2022-07-17T01:29:56;11.75;;;3.10;;
54121;SDS011;40029;58.708;50.190;2022-07-17T01:32:34;8.40;;;3.05;;
54121;SDS011;40029;58.708;50.190;2022-07-17T01:35:06;7.18;;;3.63;;
54121;SDS011;40029;58.708;50.190;2022-07-17T01:37:39;5.00;;;3.58;;
54121;SDS011;40029;58.708;50.190;2022-07-17T01:40:13;14.68;;;5.35;;
54121;SDS011;40029;58.708;50.190;2022-07-17T01:42:46;11.73;;;3.20;;
54121;SDS011;40029;58.708;50.190;2022-07-17T01:45:19;7.18;;;3.10;;
54121;SDS011;40029;58.708;50.190;2022-07-17T01:47:50;5.43;;;2.35;;
54121;SDS011;40029;58.708;50.190;2022-07-17T01:50:21;7.75;;;2.83;;
54121;SDS011;40029;58.708;50.190;2022-07-17T01:52:53;3.33;;;2.60;;
54121;SDS011;40029;58.708;50.190;2022-07-17T01:55:24;6.65;;;3.40;;
54121;SDS011;40029;58.708;50.190;2022-07-17T01:57:55;5.72;;;2.80;;
54121;SDS011;40029;58.708;50.190;2022-07-17T02:00:26;5.60;;;3.20;;
54121;SDS011;40029;58.708;50.190;2022-07-17T02:02:57;3.92;;;2.55;;
54121;SDS011;40029;58.708;50.190;2022-07-17T02:05:28;19.30;;;3.55;;
54121;SDS011;40029;58.708;50.190;2022-07-17T02:07:59;6.10;;;3.47;;
54121;SDS011;40029;58.708;50.190;2022-07-17T02:10:30;6.50;;;3.42;;
54121;SDS011;40029;58.708;50.190;2022-07-17T02:13:01;10.60;;;4.25;;
54121;SDS011;40029;58.708;50.190;2022-07-17T02:15:53;7.70;;;4.20;;
54121;SDS011;40029;58.708;50.190;2022-07-17T02:18:24;13.25;;;4.40;;
54121;SDS011;40029;58.708;50.190;2022-07-17T02:20:55;4.75;;;4.05;;
54121;SDS011;40029;58.708;50.190;2022-07-17T02:23:26;10.90;;;4.75;;
54121;SDS011;40029;58.708;50.190;2022-07-17T02:25:58;10.57;;;4.50;;
54121;SDS011;40029;58.708;50.190;2022-07-17T02:28:29;23.88;;;6.00;;
54121;SDS011;40029;58.708;50.190;2022-07-17T02:31:00;8.80;;;4.18;;
54121;SDS011;40029;58.708;50.190;2022-07-17T02:33:31;8.95;;;5.57;;
54121;SDS011;40029;58.708;50.190;2022-07-17T02:36:02;13.48;;;6.22;;
54121;SDS011;40029;58.708;50.190;2022-07-17T02:38:33;14.60;;;7.40;;
54121;SDS011;40029;58.708;50.190;2022-07-17T02:41:04;20.08;;;8.13;;
54121;SDS011;40029;58.708;50.190;2022-07-17T02:43:35;16.75;;;7.53;;
54121;SDS011;40029;58.708;50.190;2022-07-17T02:46:06;25.17;;;9.27;;
54121;SDS011;40029;58.708;50.190;2022-07-17T02:48:38;16.75;;;8.95;;
54121;SDS011;40029;58.708;50.190;2022-07-17T02:51:09;22.42;;;8.65;;
54121;SDS011;40029;58.708;50.190;2022-07-17T02:53:40;12.65;;;7.63;;
54121;SDS011;40029;58.708;50.190;2022-07-17T02:56:11;8.35;;;6.10;;
54121;SDS011;40029;58.708;50.190;2022-07-17T02:58:42;7.00;;;4.60;;
54121;SDS011;40029;58.708;50.190;2022-07-17T03:01:13;7.28;;;5.63;;
54121;SDS011;40029;58.708;50.190;2022-07-17T03:03:44;11.07;;;4.72;;
54121;SDS011;40029;58.708;50.190;2022-07-17T03:06:16;8.60;;;4.20;;
54121;SDS011;40029;58.708;50.190;2022-07-17T03:08:47;7.60;;;3.70;;
54121;SDS011;40029;58.708;50.190;2022-07-17T03:11:18;4.78;;;3.67;;
54121;SDS011;40029;58.708;50.190;2022-07-17T03:13:49;5.53;;;3.58;;
54121;SDS011;40029;58.708;50.190;2022-07-17T03:16:20;10.68;;;5.18;;
54121;SDS011;40029;58.708;50.190;2022-07-17T03:18:51;11.77;;;5.47;;
54121;SDS011;40029;58.708;50.190;2022-07-17T03:21:22;9.45;;;5.22;;
54121;SDS011;40029;58.708;50.190;2022-07-17T03:23:53;8.80;;;5.30;;
54121;SDS011;40029;58.708;50.190;2022-07-17T03:26:24;10.18;;;6.25;;
54121;SDS011;40029;58.708;50.190;2022-07-17T03:28:55;11.55;;;6.07;;
54121;SDS011;40029;58.708;50.190;2022-07-17T03:31:26;12.50;;;8.07;;
54121;SDS011;40029;58.708;50.190;2022-07-17T03:33:57;23.20;;;6.88;;
54121;SDS011;40029;58.708;50.190;2022-07-17T03:36:28;14.77;;;8.30;;
54121;SDS011;40029;58.708;50.190;2022-07-17T03:38:59;11.85;;;7.57;;
54121;SDS011;40029;58.708;50.190;2022-07-17T03:41:30;10.40;;;6.55;;
54121;SDS011;40029;58.708;50.190;2022-07-17T03:44:01;14.07;;;6.47;;
54121;SDS011;40029;58.708;50.190;2022-07-17T03:46:32;10.10;;;6.60;;
54121;SDS011;40029;58.708;50.190;2022-07-17T03:49:03;12.43;;;6.40;;
54121;SDS011;40029;58.708;50.190;2022-07-17T03:51:34;10.23;;;6.95;;
54121;SDS011;40029;58.708;50.190;2022-07-17T03:54:05;17.20;;;7.78;;
54121;SDS011;40029;58.708;50.190;2022-07-17T03:56:36;11.88;;;7.20;;
54121;SDS011;40029;58.708;50.190;2022-07-17T03:59:07;11.85;;;7.10;;
54121;SDS011;40029;58.708;50.190;2022-07-17T04:01:38;12.05;;;7.68;;
54121;SDS011;40029;58.708;50.190;2022-07-17T04:04:09;10.10;;;7.15;;
54121;SDS011;40029;58.708;50.190;2022-07-17T04:06:40;13.60;;;6.97;;
54121;SDS011;40029;58.708;50.190;2022-07-17T04:09:11;14.52;;;7.68;;
54121;SDS011;40029;58.708;50.190;2022-07-17T04:11:42;11.88;;;7.10;;
54121;SDS011;40029;58.708;50.190;2022-07-17T04:14:13;14.93;;;7.15;;
54121;SDS011;40029;58.708;50.190;2022-07-17T04:16:44;10.15;;;6.93;;
54121;SDS011;40029;58.708;50.190;2022-07-17T04:19:15;11.23;;;6.70;;
54121;SDS011;40029;58.708;50.190;2022-07-17T04:21:46;11.00;;;5.95;;
54121;SDS011;40029;58.708;50.190;2022-07-17T04:24:17;14.30;;;5.10;;
54121;SDS011;40029;58.708;50.190;2022-07-17T04:26:48;11.95;;;4.50;;
54121;SDS011;40029;58.708;50.190;2022-07-17T04:29:19;6.85;;;3.75;;
54121;SDS011;40029;58.708;50.190;2022-07-17T04:31:50;4.53;;;3.80;;
54121;SDS011;40029;58.708;50.190;2022-07-17T04:34:22;4.57;;;3.80;;
54121;SDS011;40029;58.708;50.190;2022-07-17T04:36:53;8.45;;;3.88;;
54121;SDS011;40029;58.708;50.190;2022-07-17T04:39:24;5.32;;;3.53;;
54121;SDS011;40029;58.708;50.190;2022-07-17T04:41:55;5.38;;;3.90;;
54121;SDS011;40029;58.708;50.190;2022-07-17T04:44:27;8.40;;;3.20;;
54121;SDS011;40029;58.708;50.190;2022-07-17T04:46:58;6.53;;;3.65;;
54121;SDS011;40029;58.708;50.190;2022-07-17T04:49:29;6.55;;;3.20;;
54121;SDS011;40029;58.708;50.190;2022-07-17T04:52:01;5.43;;;3.03;;
54121;SDS011;40029;58.708;50.190;2022-07-17T04:54:32;3.90;;;2.38;;
54121;SDS011;40029;58.708;50.190;2022-07-17T04:57:03;8.30;;;2.00;;
54121;SDS011;40029;58.708;50.190;2022-07-17T04:59:34;2.83;;;2.00;;
54121;SDS011;40029;58.708;50.190;2022-07-17T05:02:07;2.85;;;2.20;;
54121;SDS011;40029;58.708;50.190;2022-07-17T05:04:38;3.95;;;1.60;;
54121;SDS011;40029;58.708;50.190;2022-07-17T05:07:09;8.43;;;1.80;;
54121;SDS011;40029;58.708;50.190;2022-07-17T05:09:40;4.00;;;2.00;;
54121;SDS011;40029;58.708;50.190;2022-07-17T05:12:11;2.58;;;1.90;;
54121;SDS011;40029;58.708;50.190;2022-07-17T05:14:42;2.17;;;1.83;;
54121;SDS011;40029;58.708;50.190;2022-07-17T05:17:13;4.55;;;2.00;;
54121;SDS011;40029;58.708;50.190;2022-07-17T05:19:45;4.97;;;2.38;;
54121;SDS011;40029;58.708;50.190;2022-07-17T05:22:16;1.95;;;1.70;;
54121;SDS011;40029;58.708;50.190;2022-07-17T05:24:47;7.68;;;1.90;;
54121;SDS011;40029;58.708;50.190;2022-07-17T05:27:18;9.40;;;2.20;;
54121;SDS011;40029;58.708;50.190;2022-07-17T05:29:49;3.58;;;1.23;;
54121;SDS011;40029;58.708;50.190;2022-07-17T05:32:20;6.30;;;1.83;;
54121;SDS011;40029;58.708;50.190;2022-07-17T05:34:51;2.20;;;1.40;;
54121;SDS011;40029;58.708;50.190;2022-07-17T05:37:22;6.05;;;1.08;;
54121;SDS011;40029;58.708;50.190;2022-07-17T05:39:53;1.50;;;1.00;;
54121;SDS011;40029;58.708;50.190;2022-07-17T05:42:24;2.92;;;0.90;;
54121;SDS011;40029;58.708;50.190;2022-07-17T05:44:55;4.07;;;1.05;;
54121;SDS011;40029;58.708;50.190;2022-07-17T05:47:26;1.77;;;1.02;;
54121;SDS011;40029;58.708;50.190;2022-07-17T05:49:57;4.07;;;1.25;;
54121;SDS011;40029;58.708;50.190;2022-07-17T05:52:28;14.07;;;1.17;;
54121;SDS011;40029;58.708;50.190;2022-07-17T05:54:59;3.63;;;1.15;;
54121;SDS011;40029;58.708;50.190;2022-07-17T05:57:30;4.35;;;1.05;;
54121;SDS011;40029;58.708;50.190;2022-07-17T06:00:01;4.43;;;1.33;;
54121;SDS011;40029;58.708;50.190;2022-07-17T06:02:42;2.15;;;1.15;;
54121;SDS011;40029;58.708;50.190;2022-07-17T06:05:13;2.80;;;0.80;;
54121;SDS011;40029;58.708;50.190;2022-07-17T06:07:44;3.53;;;1.02;;
54121;SDS011;40029;58.708;50.190;2022-07-17T06:10:15;1.10;;;0.80;;
54121;SDS011;40029;58.708;50.190;2022-07-17T06:12:46;15.90;;;1.90;;
54121;SDS011;40029;58.708;50.190;2022-07-17T06:15:18;6.80;;;1.05;;
54121;SDS011;40029;58.708;50.190;2022-07-17T06:17:52;3.78;;;0.90;;
54121;SDS011;40029;58.708;50.190;2022-07-17T06:20:23;9.65;;;1.50;;
54121;SDS011;40029;58.708;50.190;2022-07-17T06:22:54;3.63;;;1.48;;
54121;SDS011;40029;58.708;50.190;2022-07-17T06:25:25;2.78;;;0.98;;
54121;SDS011;40029;58.708;50.190;2022-07-17T06:27:56;1.75;;;1.00;;
54121;SDS011;40029;58.708;50.190;2022-07-17T06:30:27;2.40;;;1.25;;
54121;SDS011;40029;58.708;50.190;2022-07-17T06:32:58;1.67;;;0.75;;
54121;SDS011;40029;58.708;50.190;2022-07-17T06:35:29;3.10;;;1.00;;
54121;SDS011;40029;58.708;50.190;2022-07-17T06:38:04;17.45;;;1.38;;
54121;SDS011;40029;58.708;50.190;2022-07-17T06:40:35;5.30;;;1.00;;
54121;SDS011;40029;58.708;50.190;2022-07-17T06:43:06;4.82;;;1.50;;
54121;SDS011;40029;58.708;50.190;2022-07-17T06:45:37;5.07;;;1.00;;
54121;SDS011;40029;58.708;50.190;2022-07-17T06:48:08;9.13;;;1.13;;
54121;SDS011;40029;58.708;50.190;2022-07-17T06:50:40;2.38;;;1.27;;
54121;SDS011;40029;58.708;50.190;2022-07-17T06:53:11;3.33;;;0.90;;
54121;SDS011;40029;58.708;50.190;2022-07-17T06:55:43;5.35;;;1.08;;
54121;SDS011;40029;58.708;50.190;2022-07-17T06:58:14;2.80;;;0.90;;
54121;SDS011;40029;58.708;50.190;2022-07-17T07:00:45;7.97;;;1.15;;
54121;SDS011;40029;58.708;50.190;2022-07-17T07:03:16;3.30;;;0.95;;
54121;SDS011;40029;58.708;50.190;2022-07-17T07:05:47;4.50;;;1.65;;
54121;SDS011;40029;58.708;50.190;2022-07-17T07:08:18;2.15;;;0.80;;
54121;SDS011;40029;58.708;50.190;2022-07-17T07:10:49;2.05;;;0.90;;
54121;SDS011;40029;58.708;50.190;2022-07-17T07:13:20;3.03;;;1.00;;
54121;SDS011;40029;58.708;50.190;2022-07-17T07:15:51;2.97;;;0.80;;
54121;SDS011;40029;58.708;50.190;2022-07-17T07:18:22;7.82;;;1.30;;
54121;SDS011;40029;58.708;50.190;2022-07-17T07:20:53;16.88;;;2.20;;
54121;SDS011;40029;58.708;50.190;2022-07-17T07:23:24;4.47;;;1.85;;
54121;SDS011;40029;58.708;50.190;2022-07-17T07:25:55;2.08;;;1.00;;
54121;SDS011;40029;58.708;50.190;2022-07-17T07:28:26;2.47;;;0.95;;
54121;SDS011;40029;58.708;50.190;2022-07-17T07:30:57;4.18;;;0.98;;
54121;SDS011;40029;58.708;50.190;2022-07-17T07:33:28;2.45;;;0.90;;
54121;SDS011;40029;58.708;50.190;2022-07-17T07:35:59;1.27;;;0.70;;
54121;SDS011;40029;58.708;50.190;2022-07-17T07:38:30;1.92;;;0.85;;
54121;SDS011;40029;58.708;50.190;2022-07-17T07:41:01;2.13;;;0.98;;
54121;SDS011;40029;58.708;50.190;2022-07-17T07:43:33;3.67;;;0.93;;
54121;SDS011;40029;58.708;50.190;2022-07-17T07:46:04;2.03;;;1.08;;
54121;SDS011;40029;58.708;50.190;2022-07-17T07:48:35;6.47;;;1.10;;
54121;SDS011;40029;58.708;50.190;2022-07-17T07:51:06;3.78;;;1.10;;
54121;SDS011;40029;58.708;50.190;2022-07-17T07:53:37;1.38;;;0.90;;
54121;SDS011;40029;58.708;50.190;2022-07-17T07:56:08;1.10;;;0.90;;
54121;SDS011;40029;58.708;50.190;2022-07-17T07:58:39;0.93;;;0.68;;
54121;SDS011;40029;58.708;50.190;2022-07-17T08:01:10;1.80;;;0.80;;
54121;SDS011;40029;58.708;50.190;2022-07-17T08:03:41;42.45;;;3.17;;
54121;SDS011;40029;58.708;50.190;2022-07-17T08:06:12;7.00;;;2.67;;
54121;SDS011;40029;58.708;50.190;2022-07-17T08:08:44;9.48;;;1.33;;
54121;SDS011;40029;58.708;50.190;2022-07-17T08:11:16;4.20;;;1.10;;
54121;SDS011;40029;58.708;50.190;2022-07-17T08:13:47;8.77;;;1.50;;
54121;SDS011;40029;58.708;50.190;2022-07-17T08:16:18;7.93;;;1.00;;
54121;SDS011;40029;58.708;50.190;2022-07-17T08:18:49;2.40;;;0.98;;
54121;SDS011;40029;58.708;50.190;2022-07-17T08:21:20;5.47;;;1.13;;
54121;SDS011;40029;58.708;50.190;2022-07-17T08:23:53;2.22;;;1.15;;
54121;SDS011;40029;58.708;50.190;2022-07-17T08:26:24;6.43;;;1.25;;
54121;SDS011;40029;58.708;50.190;2022-07-17T08:28:55;3.33;;;1.20;;
54121;SDS011;40029;58.708;50.190;2022-07-17T08:31:26;5.25;;;1.25;;
54121;SDS011;40029;58.708;50.190;2022-07-17T08:33:57;7.10;;;1.15;;
54121;SDS011;40029;58.708;50.190;2022-07-17T08:36:28;5.03;;;1.08;;
54121;SDS011;40029;58.708;50.190;2022-07-17T08:38:59;1.67;;;0.73;;
54121;SDS011;40029;58.708;50.190;2022-07-17T08:41:30;14.48;;;1.25;;
54121;SDS011;40029;58.708;50.190;2022-07-17T08:44:07;6.88;;;1.33;;
54121;SDS011;40029;58.708;50.190;2022-07-17T08:46:39;5.63;;;1.83;;
54121;SDS011;40029;58.708;50.190;2022-07-17T08:49:10;8.77;;;1.40;;
54121;SDS011;40029;58.708;50.190;2022-07-17T08:51:44;10.32;;;1.20;;
54121;SDS011;40029;58.708;50.190;2022-07-17T08:54:15;5.18;;;2.85;;
54121;SDS011;40029;58.708;50.190;2022-07-17T08:56:46;1.88;;;1.30;;
54121;SDS011;40029;58.708;50.190;2022-07-17T08:59:17;2.60;;;1.48;;
54121;SDS011;40029;58.708;50.190;2022-07-17T09:01:48;16.38;;;2.15;;
54121;SDS011;40029;58.708;50.190;2022-07-17T09:04:19;20.88;;;2.50;;
54121;SDS011;40029;58.708;50.190;2022-07-17T09:07:03;3.38;;;1.77;;
54121;SDS011;40029;58.708;50.190;2022-07-17T09:09:35;2.67;;;1.58;;
54121;SDS011;40029;58.708;50.190;2022-07-17T09:12:06;4.55;;;2.38;;
54121;SDS011;40029;58.708;50.190;2022-07-17T09:14:38;7.47;;;1.40;;
54121;SDS011;40029;58.708;50.190;2022-07-17T09:17:11;1.67;;;0.90;;
54121;SDS011;40029;58.708;50.190;2022-07-17T09:19:43;3.25;;;1.10;;
54121;SDS011;40029;58.708;50.190;2022-07-17T09:22:18;3.00;;;1.27;;
54121;SDS011;40029;58.708;50.190;2022-07-17T09:32:41;3.38;;;1.40;;
54121;SDS011;40029;58.708;50.190;2022-07-17T09:35:12;11.02;;;4.30;;
54121;SDS011;40029;58.708;50.190;2022-07-17T09:37:43;3.22;;;1.98;;
54121;SDS011;40029;58.708;50.190;2022-07-17T09:40:14;11.10;;;6.85;;
54121;SDS011;40029;58.708;50.190;2022-07-17T09:43:04;13.57;;;3.00;;
54121;SDS011;40029;58.708;50.190;2022-07-17T09:45:35;8.13;;;2.78;;
54121;SDS011;40029;58.708;50.190;2022-07-17T09:48:06;3.20;;;1.23;;
54121;SDS011;40029;58.708;50.190;2022-07-17T09:50:39;4.47;;;1.42;;
54121;SDS011;40029;58.708;50.190;2022-07-17T09:53:11;4.68;;;1.17;;
54121;SDS011;40029;58.708;50.190;2022-07-17T09:55:42;4.68;;;1.27;;
54121;SDS011;40029;58.708;50.190;2022-07-17T09:58:15;2.53;;;1.27;;
54121;SDS011;40029;58.708;50.190;2022-07-17T10:00:50;3.17;;;1.30;;
54121;SDS011;40029;58.708;50.190;2022-07-17T10:03:21;4.15;;;1.00;;
54121;SDS011;40029;58.708;50.190;2022-07-17T10:05:53;5.00;;;1.23;;
54121;SDS011;40029;58.708;50.190;2022-07-17T10:08:25;3.28;;;1.50;;
54121;SDS011;40029;58.708;50.190;2022-07-17T10:10:56;2.25;;;1.52;;
54121;SDS011;40029;58.708;50.190;2022-07-17T10:13:28;10.85;;;2.17;;
54121;SDS011;40029;58.708;50.190;2022-07-17T10:16:00;10.82;;;1.58;;
54121;SDS011;40029;58.708;50.190;2022-07-17T10:18:34;7.93;;;1.40;;
54121;SDS011;40029;58.708;50.190;2022-07-17T10:21:13;4.10;;;1.45;;
54121;SDS011;40029;58.708;50.190;2022-07-17T10:26:39;9.15;;;2.13;;
54121;SDS011;40029;58.708;50.190;2022-07-17T10:32:03;5.03;;;1.40;;
54121;SDS011;40029;58.708;50.190;2022-07-17T10:34:46;2.97;;;1.52;;
54121;SDS011;40029;58.708;50.190;2022-07-17T10:37:40;5.05;;;1.42;;
54121;SDS011;40029;58.708;50.190;2022-07-17T10:43:02;2.88;;;1.38;;
54121;SDS011;40029;58.708;50.190;2022-07-17T10:45:45;18.20;;;2.20;;
54121;SDS011;40029;58.708;50.190;2022-07-17T10:48:20;7.40;;;1.85;;
54121;SDS011;40029;58.708;50.190;2022-07-17T10:50:54;6.85;;;1.45;;
54121;SDS011;40029;58.708;50.190;2022-07-17T10:53:32;2.35;;;1.42;;
54121;SDS011;40029;58.708;50.190;2022-07-17T10:56:07;6.93;;;1.63;;
54121;SDS011;40029;58.708;50.190;2022-07-17T10:58:39;14.20;;;1.83;;
54121;SDS011;40029;58.708;50.190;2022-07-17T11:01:13;3.67;;;1.20;;
54121;SDS011;40029;58.708;50.190;2022-07-17T11:03:49;23.75;;;4.63;;
54121;SDS011;40029;58.708;50.190;2022-07-17T11:06:29;9.30;;;1.80;;
54121;SDS011;40029;58.708;50.190;2022-07-17T11:09:09;7.70;;;1.80;;
54121;SDS011;40029;58.708;50.190;2022-07-17T11:14:22;6.32;;;2.30;;
54121;SDS011;40029;58.708;50.190;2022-07-17T11:16:55;4.68;;;2.38;;
54121;SDS011;40029;58.708;50.190;2022-07-17T11:19:31;3.90;;;1.92;;
54121;SDS011;40029;58.708;50.190;2022-07-17T11:22:09;8.63;;;1.95;;
54121;SDS011;40029;58.708;50.190;2022-07-17T11:24:43;20.97;;;1.83;;
54121;SDS011;40029;58.708;50.190;2022-07-17T11:27:26;7.82;;;2.05;;
54121;SDS011;40029;58.708;50.190;2022-07-17T11:29:59;9.82;;;1.77;;
54121;SDS011;40029;58.708;50.190;2022-07-17T11:32:35;7.30;;;1.90;;
54121;SDS011;40029;58.708;50.190;2022-07-17T11:35:18;5.28;;;1.40;;
54121;SDS011;40029;58.708;50.190;2022-07-17T11:37:50;2.75;;;1.77;;
54121;SDS011;40029;58.708;50.190;2022-07-17T11:40:22;5.60;;;1.40;;
54121;SDS011;40029;58.708;50.190;2022-07-17T11:42:59;5.45;;;1.70;;
54121;SDS011;40029;58.708;50.190;2022-07-17T11:45:31;16.42;;;2.53;;
54121;SDS011;40029;58.708;50.190;2022-07-17T11:48:02;16.90;;;2.45;;
54121;SDS011;40029;58.708;50.190;2022-07-17T11:50:33;7.07;;;1.92;;
54121;SDS011;40029;58.708;50.190;2022-07-17T11:53:05;8.63;;;2.55;;
54121;SDS011;40029;58.708;50.190;2022-07-17T11:55:37;4.72;;;1.67;;
54121;SDS011;40029;58.708;50.190;2022-07-17T11:58:10;5.38;;;1.92;;
54121;SDS011;40029;58.708;50.190;2022-07-17T12:00:41;12.15;;;2.33;;
54121;SDS011;40029;58.708;50.190;2022-07-17T12:03:13;4.55;;;1.50;;
54121;SDS011;40029;58.708;50.190;2022-07-17T12:05:44;4.45;;;1.60;;
54121;SDS011;40029;58.708;50.190;2022-07-17T12:08:18;2.90;;;1.30;;
54121;SDS011;40029;58.708;50.190;2022-07-17T12:11:03;4.70;;;2.05;;
54121;SDS011;40029;58.708;50.190;2022-07-17T12:13:44;3.05;;;1.70;;
54121;SDS011;40029;58.708;50.190;2022-07-17T12:16:24;4.45;;;1.95;;
54121;SDS011;40029;58.708;50.190;2022-07-17T12:18:58;3.67;;;1.67;;
54121;SDS011;40029;58.708;50.190;2022-07-17T12:21:31;2.58;;;2.08;;
54121;SDS011;40029;58.708;50.190;2022-07-17T12:24:04;11.30;;;2.22;;
54121;SDS011;40029;58.708;50.190;2022-07-17T12:26:35;3.45;;;2.20;;
54121;SDS011;40029;58.708;50.190;2022-07-17T12:29:06;6.90;;;2.25;;
54121;SDS011;40029;58.708;50.190;2022-07-17T12:31:37;7.13;;;2.53;;
54121;SDS011;40029;58.708;50.190;2022-07-17T12:34:08;7.68;;;2.63;;
54121;SDS011;40029;58.708;50.190;2022-07-17T12:36:39;6.60;;;2.10;;
54121;SDS011;40029;58.708;50.190;2022-07-17T12:39:10;16.15;;;2.45;;
54121;SDS011;40029;58.708;50.190;2022-07-17T12:41:41;11.93;;;2.15;;
54121;SDS011;40029;58.708;50.190;2022-07-17T12:44:14;6.50;;;2.35;;
54121;SDS011;40029;58.708;50.190;2022-07-17T12:46:45;6.72;;;1.92;;
54121;SDS011;40029;58.708;50.190;2022-07-17T12:49:16;6.18;;;1.63;;
54121;SDS011;40029;58.708;50.190;2022-07-17T12:51:47;6.38;;;2.08;;
54121;SDS011;40029;58.708;50.190;2022-07-17T12:54:18;3.65;;;1.75;;
54121;SDS011;40029;58.708;50.190;2022-07-17T12:56:49;7.40;;;2.22;;
54121;SDS011;40029;58.708;50.190;2022-07-17T12:59:20;6.28;;;2.13;;
54121;SDS011;40029;58.708;50.190;2022-07-17T13:01:51;8.50;;;1.98;;
54121;SDS011;40029;58.708;50.190;2022-07-17T13:04:23;5.20;;;2.08;;
54121;SDS011;40029;58.708;50.190;2022-07-17T13:06:54;5.03;;;2.13;;
54121;SDS011;40029;58.708;50.190;2022-07-17T13:09:25;9.15;;;1.88;;
54121;SDS011;40029;58.708;50.190;2022-07-17T13:11:56;5.65;;;1.88;;
54121;SDS011;40029;58.708;50.190;2022-07-17T13:14:27;8.23;;;2.03;;
54121;SDS011;40029;58.708;50.190;2022-07-17T13:16:58;35.33;;;4.57;;
54121;SDS011;40029;58.708;50.190;2022-07-17T13:19:30;7.40;;;2.15;;
54121;SDS011;40029;58.708;50.190;2022-07-17T13:22:01;4.97;;;2.50;;
54121;SDS011;40029;58.708;50.190;2022-07-17T13:24:33;19.27;;;2.50;;
54121;SDS011;40029;58.708;50.190;2022-07-17T13:27:04;8.18;;;2.20;;
54121;SDS011;40029;58.708;50.190;2022-07-17T13:29:35;4.57;;;1.85;;
54121;SDS011;40029;58.708;50.190;2022-07-17T13:32:06;10.48;;;2.40;;
54121;SDS011;40029;58.708;50.190;2022-07-17T13:34:37;5.50;;;1.80;;
54121;SDS011;40029;58.708;50.190;2022-07-17T13:37:08;61.30;;;6.05;;
54121;SDS011;40029;58.708;50.190;2022-07-17T13:39:39;6.55;;;2.92;;
54121;SDS011;40029;58.708;50.190;2022-07-17T13:42:10;9.45;;;3.45;;
54121;SDS011;40029;58.708;50.190;2022-07-17T13:44:41;10.20;;;2.90;;
54121;SDS011;40029;58.708;50.190;2022-07-17T13:47:12;4.85;;;2.53;;
54121;SDS011;40029;58.708;50.190;2022-07-17T13:49:43;5.90;;;2.30;;
54121;SDS011;40029;58.708;50.190;2022-07-17T13:52:14;7.28;;;2.47;;
54121;SDS011;40029;58.708;50.190;2022-07-17T13:54:45;5.50;;;2.50;;
54121;SDS011;40029;58.708;50.190;2022-07-17T13:57:16;14.05;;;2.88;;
54121;SDS011;40029;58.708;50.190;2022-07-17T13:59:47;7.90;;;2.65;;
54121;SDS011;40029;58.708;50.190;2022-07-17T14:02:18;18.58;;;3.17;;
54121;SDS011;40029;58.708;50.190;2022-07-17T14:04:49;8.43;;;4.30;;
54121;SDS011;40029;58.708;50.190;2022-07-17T14:07:20;9.82;;;4.70;;
54121;SDS011;40029;58.708;50.190;2022-07-17T14:09:51;6.03;;;3.30;;
54121;SDS011;40029;58.708;50.190;2022-07-17T14:12:22;9.13;;;2.95;;
54121;SDS011;40029;58.708;50.190;2022-07-17T14:14:54;32.45;;;3.78;;
54121;SDS011;40029;58.708;50.190;2022-07-17T14:17:24;5.93;;;2.60;;
54121;SDS011;40029;58.708;50.190;2022-07-17T14:19:55;4.05;;;1.70;;
54121;SDS011;40029;58.708;50.190;2022-07-17T14:22:26;7.45;;;2.70;;
54121;SDS011;40029;58.708;50.190;2022-07-17T14:24:58;38.15;;;4.88;;
54121;SDS011;40029;58.708;50.190;2022-07-17T14:27:29;6.22;;;1.90;;
54121;SDS011;40029;58.708;50.190;2022-07-17T14:30:00;10.25;;;2.33;;
54121;SDS011;40029;58.708;50.190;2022-07-17T14:32:31;8.10;;;2.00;;
54121;SDS011;40029;58.708;50.190;2022-07-17T14:35:03;3.58;;;1.88;;
54121;SDS011;40029;58.708;50.190;2022-07-17T14:37:34;3.40;;;1.90;;
54121;SDS011;40029;58.708;50.190;2022-07-17T14:40:06;20.55;;;2.67;;
54121;SDS011;40029;58.708;50.190;2022-07-17T14:42:37;4.75;;;1.85;;
54121;SDS011;40029;58.708;50.190;2022-07-17T14:45:09;3.08;;;2.20;;
54121;SDS011;40029;58.708;50.190;2022-07-17T14:47:40;8.88;;;2.00;;
54121;SDS011;40029;58.708;50.190;2022-07-17T14:50:11;4.22;;;1.75;;
54121;SDS011;40029;58.708;50.190;2022-07-17T14:52:42;10.35;;;1.95;;
54121;SDS011;40029;58.708;50.190;2022-07-17T14:55:13;5.15;;;1.98;;
54121;SDS011;40029;58.708;50.190;2022-07-17T14:57:44;7.50;;;2.15;;
54121;SDS011;40029;58.708;50.190;2022-07-17T15:00:15;6.13;;;2.20;;
54121;SDS011;40029;58.708;50.190;2022-07-17T15:02:46;15.15;;;2.58;;
54121;SDS011;40029;58.708;50.190;2022-07-17T15:05:17;8.15;;;2.13;;
54121;SDS011;40029;58.708;50.190;2022-07-17T15:07:49;7.50;;;2.35;;
54121;SDS011;40029;58.708;50.190;2022-07-17T15:10:20;6.20;;;2.15;;
54121;SDS011;40029;58.708;50.190;2022-07-17T15:12:51;24.83;;;3.50;;
54121;SDS011;40029;58.708;50.190;2022-07-17T15:15:22;10.57;;;2.60;;
54121;SDS011;40029;58.708;50.190;2022-07-17T15:17:53;18.38;;;3.63;;